createdAt,value
2023-01-12T00:01:13.514Z,94896
2023-01-12T00:04:38.852Z,94899
2023-01-12T00:08:05.309Z,94904
2023-01-12T00:11:29.278Z,94900
2023-01-12T00:14:54.548Z,94901
2023-01-12T00:18:19.814Z,94900
2023-01-12T00:21:45.042Z,94902
2023-01-12T00:25:10.294Z,94895
2023-01-12T00:28:35.529Z,94898
2023-01-12T00:32:00.855Z,94905
2023-01-12T00:35:26.053Z,94907
2023-01-12T00:38:51.349Z,94899
2023-01-12T00:42:16.599Z,94899
2023-01-12T00:45:41.845Z,94893
2023-01-12T00:49:07.113Z,94890
2023-01-12T00:52:32.355Z,94884
2023-01-12T00:55:57.590Z,94880
2023-01-12T00:59:22.872Z,94876
2023-01-12T01:02:48.171Z,94889
2023-01-12T01:06:13.394Z,94892
2023-01-12T01:09:38.616Z,94896
2023-01-12T01:13:03.860Z,94908
2023-01-12T01:16:29.121Z,94903
2023-01-12T01:19:54.365Z,94899
2023-01-12T01:23:19.646Z,94899
2023-01-12T01:26:44.880Z,94896
2023-01-12T01:30:10.133Z,94898
2023-01-12T01:33:35.368Z,94888
2023-01-12T01:37:00.609Z,94895
2023-01-12T01:40:25.879Z,94885
2023-01-12T01:43:51.109Z,94880
2023-01-12T01:47:16.364Z,94868
2023-01-12T01:50:41.622Z,94866
2023-01-12T01:54:06.858Z,94869
2023-01-12T01:57:32.135Z,94857
2023-01-12T02:00:57.429Z,94858
2023-01-12T02:04:22.631Z,94862
2023-01-12T02:07:47.885Z,94865
2023-01-12T02:11:13.157Z,94858
2023-01-12T02:14:38.465Z,94855
2023-01-12T02:18:03.667Z,94844
2023-01-12T02:21:28.914Z,94844
2023-01-12T02:24:54.146Z,94837
2023-01-12T02:28:19.418Z,94831
2023-01-12T02:31:44.703Z,94838
2023-01-12T02:35:09.925Z,94827
2023-01-12T02:38:35.170Z,94814
2023-01-12T02:42:00.429Z,94813
2023-01-12T02:45:25.676Z,94800
2023-01-12T02:48:50.935Z,94787
2023-01-12T02:52:16.166Z,94783
2023-01-12T02:55:41.391Z,94794
2023-01-12T02:59:06.636Z,94790
2023-01-12T03:02:31.904Z,94781
2023-01-12T03:05:57.192Z,94797
2023-01-12T03:09:22.433Z,94786
2023-01-12T03:12:47.654Z,94785
2023-01-12T03:16:12.964Z,94786
2023-01-12T03:19:38.155Z,94785
2023-01-12T03:23:03.461Z,94777
2023-01-12T03:26:28.688Z,94771
2023-01-12T03:29:53.935Z,94771
2023-01-12T03:33:19.190Z,94776
2023-01-12T03:36:44.454Z,94775
2023-01-12T03:40:09.728Z,94770
2023-01-12T03:43:34.961Z,94772
2023-01-12T03:47:00.260Z,94767
2023-01-12T03:50:25.505Z,94754
2023-01-12T03:53:50.752Z,94764
2023-01-12T03:57:16.005Z,94765
2023-01-12T04:00:41.286Z,94752
2023-01-12T04:04:06.488Z,94744
2023-01-12T04:07:31.721Z,94754
2023-01-12T04:10:57.003Z,94733
2023-01-12T04:14:22.274Z,94727
2023-01-12T04:17:47.518Z,94721
2023-01-12T04:21:12.790Z,94726
2023-01-12T04:24:38.021Z,94717
2023-01-12T04:28:03.261Z,94730
2023-01-12T04:31:28.563Z,94724
2023-01-12T04:34:53.840Z,94716
2023-01-12T04:38:19.149Z,94729
2023-01-12T04:41:44.410Z,94719
2023-01-12T04:45:09.652Z,94715
2023-01-12T04:48:34.898Z,94718
2023-01-12T04:52:00.117Z,94717
2023-01-12T04:55:25.351Z,94718
2023-01-12T04:58:50.581Z,94720
2023-01-12T05:02:15.916Z,94718
2023-01-12T05:05:41.092Z,94714
2023-01-12T05:09:06.341Z,94716
2023-01-12T05:12:31.642Z,94710
2023-01-12T05:15:56.911Z,94713
2023-01-12T05:19:22.128Z,94703
2023-01-12T05:22:47.415Z,94705
2023-01-12T05:26:12.638Z,94706
2023-01-12T05:29:37.854Z,94699
2023-01-12T05:33:03.113Z,94697
2023-01-12T05:36:28.360Z,94690
2023-01-12T05:39:53.621Z,94682
2023-01-12T05:43:18.828Z,94686
2023-01-12T05:46:44.115Z,94693
2023-01-12T05:50:09.370Z,94692
2023-01-12T05:53:34.603Z,94689
2023-01-12T05:56:59.972Z,94677
2023-01-12T06:00:25.116Z,94689
2023-01-12T06:03:50.373Z,94678
2023-01-12T06:07:15.692Z,94675
2023-01-12T06:10:40.934Z,94671
2023-01-12T06:14:06.309Z,94666
2023-01-12T06:17:31.561Z,94661
2023-01-12T06:20:56.812Z,94657
2023-01-12T06:24:22.049Z,94658
2023-01-12T06:27:47.317Z,94654
2023-01-12T06:31:12.658Z,94653
2023-01-12T06:34:37.908Z,94638
2023-01-12T06:38:03.188Z,94642
2023-01-12T06:41:28.450Z,94648
2023-01-12T06:44:53.777Z,94655
2023-01-12T06:48:19.088Z,94646
2023-01-12T06:51:44.340Z,94642
2023-01-12T06:55:09.587Z,94659
2023-01-12T06:58:34.843Z,94655
2023-01-12T07:02:00.316Z,94661
2023-01-12T07:05:25.428Z,94652
2023-01-12T07:08:50.651Z,94650
2023-01-12T07:12:15.925Z,94652
2023-01-12T07:15:41.297Z,94645
2023-01-12T07:19:06.523Z,94651
2023-01-12T07:22:31.875Z,94646
2023-01-12T07:25:57.103Z,94651
2023-01-12T07:29:22.382Z,94641
2023-01-12T07:32:47.661Z,94639
2023-01-12T07:36:12.917Z,94640
2023-01-12T07:39:38.162Z,94638
2023-01-12T07:43:03.389Z,94626
2023-01-12T07:46:28.672Z,94633
2023-01-12T07:49:53.937Z,94633
2023-01-12T07:53:19.254Z,94619
2023-01-12T07:56:44.674Z,94619
2023-01-12T08:00:09.906Z,94622
2023-01-12T08:03:35.212Z,94616
2023-01-12T08:07:00.512Z,94618
2023-01-12T08:10:25.835Z,94613
2023-01-12T08:13:51.237Z,94611
2023-01-12T08:17:16.439Z,94608
2023-01-12T08:20:41.779Z,94607
2023-01-12T08:24:07.094Z,94598
2023-01-12T08:27:32.392Z,94585
2023-01-12T08:30:57.750Z,94589
2023-01-12T08:34:22.976Z,94594
2023-01-12T08:37:48.294Z,94582
2023-01-12T08:41:13.597Z,94569
2023-01-12T08:44:38.926Z,94569
2023-01-12T08:48:04.294Z,94567
2023-01-12T08:51:29.507Z,94557
2023-01-12T08:54:54.786Z,94547
2023-01-12T08:58:20.050Z,94544
2023-01-12T09:01:45.438Z,94551
2023-01-12T09:05:10.638Z,94550
2023-01-12T09:08:35.885Z,94559
2023-01-12T09:12:01.167Z,94548
2023-01-12T09:15:26.464Z,94530
2023-01-12T09:18:51.803Z,94543
2023-01-12T09:22:17.083Z,94549
2023-01-12T09:25:42.307Z,94556
2023-01-12T09:29:07.626Z,94564
2023-01-12T09:32:36.634Z,94534
2023-01-12T09:35:58.113Z,94535
2023-01-12T09:39:27.608Z,94537
2023-01-12T09:42:48.681Z,94554
2023-01-12T09:46:13.989Z,94547
2023-01-12T09:49:39.324Z,94555
2023-01-12T09:53:04.560Z,94551
2023-01-12T09:56:29.913Z,94562
2023-01-12T09:59:55.181Z,94559
2023-01-12T10:03:20.503Z,94557
2023-01-12T10:06:45.751Z,94558
2023-01-12T10:10:11.080Z,94560
2023-01-12T10:13:36.352Z,94550
2023-01-12T10:17:01.576Z,94539
2023-01-12T10:20:27.004Z,94534
2023-01-12T10:23:52.389Z,94535
2023-01-12T10:27:17.700Z,94524
2023-01-12T10:30:43.014Z,94519
2023-01-12T10:34:08.349Z,94511
2023-01-12T10:37:33.729Z,94508
2023-01-12T10:40:59.141Z,94498
2023-01-12T10:44:24.503Z,94520
2023-01-12T10:47:49.804Z,94508
2023-01-12T10:51:15.079Z,94498
2023-01-12T10:54:40.697Z,94493
2023-01-12T10:58:05.996Z,94501
2023-01-12T11:01:31.302Z,94496
2023-01-12T11:04:57.352Z,94489
2023-01-12T11:08:22.743Z,94483
2023-01-12T11:11:47.989Z,94486
2023-01-12T11:15:13.501Z,94493
2023-01-12T11:18:38.881Z,94484
2023-01-12T11:22:04.258Z,94476
2023-01-12T11:25:29.697Z,94470
2023-01-12T11:28:55.089Z,94482
2023-01-12T11:32:21.474Z,94470
2023-01-12T11:35:56.409Z,94473
2023-01-12T11:39:21.793Z,94471
2023-01-12T11:42:47.266Z,94446
2023-01-12T11:46:12.671Z,94453
2023-01-12T11:49:38.005Z,94452
2023-01-12T11:53:03.479Z,94442
2023-01-12T11:56:28.941Z,94449
2023-01-12T11:59:54.241Z,94452
2023-01-12T12:03:19.794Z,94439
2023-01-12T12:06:45.204Z,94434
2023-01-12T12:10:10.537Z,94435
2023-01-12T12:13:35.878Z,94438
2023-01-12T12:17:01.109Z,94440
2023-01-12T12:20:26.425Z,94437
2023-01-12T12:23:51.720Z,94436
2023-01-12T12:27:17.082Z,94423
2023-01-12T12:30:42.492Z,94433
2023-01-12T12:34:07.775Z,94422
2023-01-12T12:37:33.209Z,94417
2023-01-12T12:40:58.491Z,94420
2023-01-12T12:44:23.793Z,94412
2023-01-12T12:47:49.229Z,94410
2023-01-12T12:51:14.527Z,94405
2023-01-12T12:54:39.853Z,94421
2023-01-12T12:58:05.164Z,94407
2023-01-12T13:01:30.512Z,94409
2023-01-12T13:04:55.755Z,94411
2023-01-12T13:08:21.041Z,94407
2023-01-12T13:11:46.302Z,94413
2023-01-12T13:15:11.614Z,94404
2023-01-12T13:18:36.931Z,94405
2023-01-12T13:22:02.260Z,94412
2023-01-12T13:25:27.560Z,94417
2023-01-12T13:28:52.971Z,94423
2023-01-12T13:32:18.331Z,94417
2023-01-12T13:35:43.784Z,94415
2023-01-12T13:39:09.207Z,94422
2023-01-12T13:42:34.541Z,94420
2023-01-12T13:46:00.215Z,94410
2023-01-12T13:49:25.474Z,94410
2023-01-12T13:52:50.776Z,94407
2023-01-12T13:56:16.095Z,94417
2023-01-12T13:59:41.334Z,94407
2023-01-12T14:03:06.682Z,94410
2023-01-12T14:06:31.963Z,94417
2023-01-12T14:09:57.248Z,94420
2023-01-12T14:13:22.629Z,94424
2023-01-12T14:17:05.070Z,94429
2023-01-12T14:20:13.254Z,94420
2023-01-12T14:23:38.592Z,94426
2023-01-12T14:27:03.951Z,94430
2023-01-12T14:30:29.297Z,94432
2023-01-12T15:06:41.232Z,94423
2023-01-12T15:10:06.617Z,94424
2023-01-12T15:13:31.978Z,94417
2023-01-12T15:16:57.317Z,94412
2023-01-12T15:20:22.625Z,94418
2023-01-12T15:23:48.022Z,94410
2023-01-12T15:27:13.342Z,94419
2023-01-12T15:30:38.690Z,94431
2023-01-12T15:34:03.953Z,94432
2023-01-12T15:37:29.203Z,94442
2023-01-12T15:40:54.518Z,94450
2023-01-12T15:44:19.731Z,94440
2023-01-12T15:47:44.994Z,94446
2023-01-12T15:51:10.266Z,94444
2023-01-12T15:54:35.522Z,94442
2023-01-12T15:58:00.821Z,94436
2023-01-12T16:01:26.217Z,94428
2023-01-12T16:04:51.426Z,94436
2023-01-12T16:08:16.679Z,94440
2023-01-12T16:11:41.923Z,94431
2023-01-12T16:15:07.244Z,94439
2023-01-12T16:18:32.517Z,94438
2023-01-12T16:21:57.906Z,94427
2023-01-12T16:25:23.168Z,94431
2023-01-12T16:28:49.660Z,94432
2023-01-12T16:32:15.443Z,94435
2023-01-12T16:35:40.621Z,94443
2023-01-12T16:39:05.909Z,94443
2023-01-12T16:42:31.174Z,94450
2023-01-12T16:45:56.518Z,94442
2023-01-12T16:49:21.732Z,94434
2023-01-12T16:52:46.940Z,94434
2023-01-12T16:56:12.206Z,94425
2023-01-12T16:59:37.500Z,94431
2023-01-12T17:03:02.996Z,94425
2023-01-12T17:06:28.251Z,94436
2023-01-12T17:09:54.123Z,94441
2023-01-12T17:13:19.691Z,94433
2023-01-12T17:16:45.055Z,94435
2023-01-12T17:20:10.457Z,94432
2023-01-12T17:23:36.015Z,94446
2023-01-12T17:27:01.337Z,94440
2023-01-12T17:30:26.871Z,94442
2023-01-12T17:33:52.275Z,94433
2023-01-12T17:37:17.864Z,94437
2023-01-12T17:40:43.300Z,94440
2023-01-12T17:44:08.669Z,94442
2023-01-12T17:51:01.742Z,94435
2023-01-12T17:54:27.539Z,94424
2023-01-12T17:57:53.225Z,94419
2023-01-12T18:01:18.796Z,94407
2023-01-12T18:04:44.287Z,94410
2023-01-12T18:08:09.952Z,94405
2023-01-12T18:11:35.492Z,94403
2023-01-12T18:15:01.115Z,94402
2023-01-12T18:18:26.753Z,94406
2023-01-12T18:21:52.336Z,94409
2023-01-12T18:25:17.920Z,94410
2023-01-12T18:28:44.399Z,94420
2023-01-12T18:32:10.110Z,94413
2023-01-12T18:35:35.803Z,94416
2023-01-12T18:39:01.494Z,94421
2023-01-12T18:42:26.996Z,94422
2023-01-12T18:45:52.531Z,94420
2023-01-12T18:49:18.209Z,94418
2023-01-12T18:52:43.669Z,94399
2023-01-12T18:56:09.472Z,94411
2023-01-12T18:59:35.123Z,94395
2023-01-12T19:03:00.769Z,94404
2023-01-12T19:06:26.395Z,94405
2023-01-12T19:09:52.737Z,94396
2023-01-12T19:13:18.219Z,94390
2023-01-12T19:16:43.783Z,94396
2023-01-12T19:20:09.525Z,94396
2023-01-12T19:23:35.143Z,94400
2023-01-12T19:27:00.690Z,94401
2023-01-12T19:30:26.954Z,94404
2023-01-12T19:33:52.540Z,94406
2023-01-12T19:37:18.174Z,94401
2023-01-12T19:40:43.751Z,94396
2023-01-12T19:44:09.291Z,94393
2023-01-12T19:47:37.599Z,94385
2023-01-12T19:51:03.197Z,94386
2023-01-12T19:54:28.725Z,94386
2023-01-12T19:57:54.640Z,94383
2023-01-12T20:01:19.907Z,94381
2023-01-12T20:04:45.466Z,94383
2023-01-12T20:08:10.969Z,94373
2023-01-12T20:11:36.452Z,94380
2023-01-12T20:15:02.011Z,94374
2023-01-12T20:18:27.501Z,94377
2023-01-12T20:21:52.971Z,94374
2023-01-12T20:25:18.969Z,94376
2023-01-12T20:28:44.453Z,94375
2023-01-12T20:32:09.948Z,94379
2023-01-12T20:35:35.444Z,94383
2023-01-12T20:39:00.914Z,94369
2023-01-12T20:42:26.390Z,94365
2023-01-12T20:45:51.947Z,94373
2023-01-12T20:49:17.480Z,94367
2023-01-12T20:52:43.007Z,94379
2023-01-12T20:56:08.430Z,94372
2023-01-12T20:59:33.737Z,94355
2023-01-12T21:02:59.036Z,94361
2023-01-12T21:06:24.372Z,94362
2023-01-12T21:09:49.647Z,94357
2023-01-12T21:13:14.897Z,94349
2023-01-12T21:16:40.261Z,94352
2023-01-12T21:20:05.523Z,94347
2023-01-12T21:23:30.940Z,94344
2023-01-12T21:26:56.255Z,94337
2023-01-12T21:30:21.524Z,94330
2023-01-12T21:33:46.843Z,94331
2023-01-12T21:37:12.160Z,94310
2023-01-12T21:40:37.462Z,94318
2023-01-12T21:44:03.038Z,94322
2023-01-12T21:47:28.112Z,94319
2023-01-12T21:50:53.429Z,94308
2023-01-12T21:54:18.762Z,94301
2023-01-12T21:57:44.096Z,94302
2023-01-12T22:01:09.517Z,94301
2023-01-12T22:04:34.735Z,94303
2023-01-12T22:08:00.067Z,94298
2023-01-12T22:11:25.359Z,94305
2023-01-12T22:14:50.704Z,94291
2023-01-12T22:18:15.981Z,94298
2023-01-12T22:21:41.281Z,94280
2023-01-12T22:25:06.587Z,94272
2023-01-12T22:28:31.913Z,94282
2023-01-12T22:31:57.314Z,94268
2023-01-12T22:35:22.473Z,94275
2023-01-12T22:38:47.812Z,94273
2023-01-12T22:42:13.759Z,94274
2023-01-12T22:45:39.116Z,94273
2023-01-12T22:49:04.382Z,94255
2023-01-12T22:52:29.644Z,94258
2023-01-12T22:55:54.987Z,94264
2023-01-12T22:59:20.456Z,94246
2023-01-12T23:02:46.181Z,94248
2023-01-12T23:06:11.859Z,94245
2023-01-12T23:09:37.621Z,94236
2023-01-12T23:13:03.408Z,94247
2023-01-12T23:16:29.235Z,94233
2023-01-12T23:19:54.982Z,94238
2023-01-12T23:23:20.844Z,94224
2023-01-12T23:26:46.605Z,94221
2023-01-12T23:30:12.445Z,94223
2023-01-12T23:33:38.228Z,94229
2023-01-12T23:37:04.011Z,94212
2023-01-12T23:40:29.837Z,94205
2023-01-12T23:43:55.605Z,94213
2023-01-12T23:47:21.375Z,94210
2023-01-12T23:50:47.179Z,94210
2023-01-12T23:54:12.965Z,94205
2023-01-12T23:57:38.814Z,94213
